Time;durP1;ratioP1;P1;durP2;ratioP2;P2;SDS_P1;SDS_P2;PMS_P1;PMS_P2;Temp;Humidity;BMP_temperature;BMP_pressure;BME280_temperature;BME280_humidity;BME280_pressure;Samples;Min_cycle;Max_cycle;Signal;HPM_P1;HPM_P2
2023/08/13 00:01:05;;;;;;;24.70;6.40;;;;;;;;;;5007731;28;20132;-69
2023/08/13 00:03:31;;;;;;;25.58;5.88;;;;;;;;;;5013523;28;20154;-70
2023/08/13 00:05:57;;;;;;;26.38;5.78;;;;;;;;;;5011323;28;20505;-70
2023/08/13 00:08:23;;;;;;;27.15;6.15;;;;;;;;;;5010677;28;20053;-70
2023/08/13 00:10:49;;;;;;;21.40;5.50;;;;;;;;;;5011089;28;20050;-70
2023/08/13 00:13:16;;;;;;;25.65;5.75;;;;;;;;;;5027892;28;20698;-70
2023/08/13 00:15:42;;;;;;;23.83;5.30;;;;;;;;;;5025373;28;20255;-71
2023/08/13 00:18:10;;;;;;;19.80;5.13;;;;;;;;;;4995993;28;20505;-70
2023/08/13 00:20:36;;;;;;;14.73;5.35;;;;;;;;;;5024116;28;20046;-70
2023/08/13 00:23:02;;;;;;;26.70;5.78;;;;;;;;;;5002986;28;20050;-70
2023/08/13 00:25:28;;;;;;;21.15;5.22;;;;;;;;;;5010661;28;20041;-70
2023/08/13 00:27:54;;;;;;;20.00;5.80;;;;;;;;;;4995490;28;20046;-70
2023/08/13 00:30:20;;;;;;;20.98;5.78;;;;;;;;;;5022698;28;20124;-70
2023/08/13 00:32:46;;;;;;;22.42;5.28;;;;;;;;;;5008237;28;20057;-70
2023/08/13 00:35:12;;;;;;;19.70;5.22;;;;;;;;;;5007629;28;20037;-70
2023/08/13 00:37:38;;;;;;;24.42;5.75;;;;;;;;;;4997585;28;20064;-70
2023/08/13 00:40:04;;;;;;;22.83;6.13;;;;;;;;;;5025889;28;20129;-70
2023/08/13 00:42:30;;;;;;;24.90;5.95;;;;;;;;;;5020344;28;20073;-70
2023/08/13 00:44:56;;;;;;;26.02;6.22;;;;;;;;;;5017828;28;20042;-70
2023/08/13 00:47:22;;;;;;;23.92;6.03;;;;;;;;;;4999861;28;20058;-70
2023/08/13 00:49:52;;;;;;;18.85;5.13;;;;;;;;;;5025466;28;20088;-70
2023/08/13 00:52:18;;;;;;;22.83;6.13;;;;;;;;;;5028868;28;20554;-69
2023/08/13 00:54:44;;;;;;;21.50;6.07;;;;;;;;;;5008429;28;20045;-70
2023/08/13 00:57:11;;;;;;;18.83;5.78;;;;;;;;;;4994039;28;20137;-70
2023/08/13 00:59:37;;;;;;;29.02;6.20;;;;;;;;;;5029660;28;20038;-70
2023/08/13 01:02:03;;;;;;;26.52;5.75;;;;;;;;;;5078997;27;20053;-70
2023/08/13 01:04:29;;;;;;;26.90;5.93;;;;;;;;;;5029456;28;20048;-69
2023/08/13 01:07:04;;;;;;;19.42;4.88;;;;;;;;;;5028600;28;20416;-69
2023/08/13 01:09:49;;;;;;;24.05;6.22;;;;;;;;;;5028685;28;20133;-70
2023/08/13 01:12:21;;;;;;;24.60;6.00;;;;;;;;;;5020115;28;20095;-69
2023/08/13 01:14:50;;;;;;;22.25;5.38;;;;;;;;;;5020208;28;20046;-70
2023/08/13 01:17:17;;;;;;;25.13;5.95;;;;;;;;;;5022797;28;20054;-70
2023/08/13 01:19:43;;;;;;;18.48;5.15;;;;;;;;;;5009182;28;20076;-70
2023/08/13 01:22:09;;;;;;;24.63;5.88;;;;;;;;;;5018188;28;20041;-70
2023/08/13 01:24:39;;;;;;;16.77;5.05;;;;;;;;;;5015346;28;20048;-70
2023/08/13 01:27:12;;;;;;;19.50;5.75;;;;;;;;;;5010397;28;20504;-70
2023/08/13 01:29:42;;;;;;;25.35;6.18;;;;;;;;;;5012323;28;20046;-70
2023/08/13 01:32:12;;;;;;;19.05;5.22;;;;;;;;;;5015798;28;20050;-70
2023/08/13 01:34:38;;;;;;;22.30;5.50;;;;;;;;;;5010561;28;20082;-70
2023/08/13 01:37:05;;;;;;;21.77;5.68;;;;;;;;;;5015805;28;21727;-69
2023/08/13 01:39:31;;;;;;;23.63;5.93;;;;;;;;;;5006085;28;20078;-70
2023/08/13 01:41:57;;;;;;;27.00;5.93;;;;;;;;;;4993105;28;20551;-70
2023/08/13 01:44:23;;;;;;;24.40;5.95;;;;;;;;;;4994990;28;20042;-70
2023/08/13 01:46:49;;;;;;;20.13;6.35;;;;;;;;;;5006606;28;20048;-70
2023/08/13 01:49:15;;;;;;;19.95;4.75;;;;;;;;;;4994482;28;20050;-70
2023/08/13 01:51:41;;;;;;;19.70;5.57;;;;;;;;;;5014218;28;20527;-70
2023/08/13 01:54:07;;;;;;;21.38;6.35;;;;;;;;;;5015537;28;20052;-70
2023/08/13 01:56:33;;;;;;;23.98;5.90;;;;;;;;;;5021781;28;20046;-69
2023/08/13 01:58:59;;;;;;;20.15;5.35;;;;;;;;;;5012111;28;20049;-69
2023/08/13 02:01:26;;;;;;;17.98;4.78;;;;;;;;;;5005904;28;20045;-70
2023/08/13 02:03:52;;;;;;;26.02;6.03;;;;;;;;;;5030295;28;20046;-70
2023/08/13 02:06:18;;;;;;;19.20;5.28;;;;;;;;;;5016557;28;20054;-70
2023/08/13 02:08:44;;;;;;;21.98;6.13;;;;;;;;;;5003525;28;20053;-70
2023/08/13 02:11:10;;;;;;;18.38;4.93;;;;;;;;;;5012121;28;20410;-69
2023/08/13 02:13:36;;;;;;;22.85;5.22;;;;;;;;;;5031116;28;20046;-69
2023/08/13 02:16:03;;;;;;;16.45;5.10;;;;;;;;;;5025344;28;20044;-70
2023/08/13 02:18:29;;;;;;;21.48;4.95;;;;;;;;;;5022384;28;20081;-69
2023/08/13 02:20:55;;;;;;;24.55;5.85;;;;;;;;;;5013058;28;20103;-70
2023/08/13 02:23:21;;;;;;;17.35;5.10;;;;;;;;;;5027285;28;20053;-70
2023/08/13 02:25:47;;;;;;;23.08;5.63;;;;;;;;;;5012443;28;20049;-70
2023/08/13 02:28:13;;;;;;;22.63;5.93;;;;;;;;;;5020563;28;20045;-69
2023/08/13 02:30:39;;;;;;;21.20;5.47;;;;;;;;;;5026457;28;20034;-69
2023/08/13 02:33:06;;;;;;;24.30;6.15;;;;;;;;;;5021422;28;20091;-69
2023/08/13 02:35:32;;;;;;;19.40;5.60;;;;;;;;;;5025811;28;20046;-70
2023/08/13 02:37:58;;;;;;;20.27;5.47;;;;;;;;;;5011019;28;20133;-69
2023/08/13 02:40:24;;;;;;;25.17;6.05;;;;;;;;;;5012058;28;20081;-70
2023/08/13 02:42:50;;;;;;;23.45;5.10;;;;;;;;;;4994585;28;20050;-70
2023/08/13 02:45:16;;;;;;;18.40;5.10;;;;;;;;;;5012894;28;20045;-69
2023/08/13 02:47:42;;;;;;;23.20;5.47;;;;;;;;;;5017888;28;20052;-70
2023/08/13 02:50:09;;;;;;;23.10;5.10;;;;;;;;;;4994693;28;20465;-69
2023/08/13 02:52:35;;;;;;;22.70;5.57;;;;;;;;;;5022499;28;20087;-70
2023/08/13 02:55:02;;;;;;;22.65;5.47;;;;;;;;;;5026594;28;20045;-69
2023/08/13 02:57:28;;;;;;;22.08;6.03;;;;;;;;;;5027914;28;20504;-69
2023/08/13 02:59:54;;;;;;;24.65;5.22;;;;;;;;;;5000043;28;20042;-69
2023/08/13 03:02:20;;;;;;;20.27;5.80;;;;;;;;;;5029735;28;20045;-70
2023/08/13 03:04:46;;;;;;;23.00;5.50;;;;;;;;;;5011007;28;20541;-70
2023/08/13 03:07:12;;;;;;;15.82;5.20;;;;;;;;;;5006933;28;20493;-70
2023/08/13 03:09:38;;;;;;;20.77;5.43;;;;;;;;;;5018010;28;20470;-70
2023/08/13 03:12:04;;;;;;;18.85;4.90;;;;;;;;;;5018269;28;20041;-70
2023/08/13 03:14:30;;;;;;;20.70;5.45;;;;;;;;;;5028959;28;20053;-70
2023/08/13 03:16:56;;;;;;;17.17;4.82;;;;;;;;;;5029394;28;20400;-70
2023/08/13 03:19:22;;;;;;;16.05;5.03;;;;;;;;;;5013555;28;20512;-70
2023/08/13 03:21:49;;;;;;;15.00;4.82;;;;;;;;;;5010681;28;20053;-70
2023/08/13 03:24:15;;;;;;;20.52;5.22;;;;;;;;;;5030651;28;20043;-70
2023/08/13 03:26:41;;;;;;;22.33;5.38;;;;;;;;;;5015280;28;20046;-71
2023/08/13 03:29:07;;;;;;;20.45;4.63;;;;;;;;;;5003507;28;20095;-70
2023/08/13 03:31:33;;;;;;;16.98;4.32;;;;;;;;;;5011870;28;20099;-70
2023/08/13 03:33:59;;;;;;;16.55;4.32;;;;;;;;;;5010524;28;20512;-70
2023/08/13 03:36:25;;;;;;;16.85;5.03;;;;;;;;;;5014553;28;20068;-70
2023/08/13 03:38:51;;;;;;;16.95;5.00;;;;;;;;;;5030872;28;20476;-71
2023/08/13 03:41:17;;;;;;;17.40;4.65;;;;;;;;;;5028989;28;20053;-70
2023/08/13 03:43:43;;;;;;;13.85;4.25;;;;;;;;;;5054506;27;20118;-71
2023/08/13 03:46:11;;;;;;;19.55;5.25;;;;;;;;;;5011510;28;20046;-70
2023/08/13 03:48:37;;;;;;;24.85;5.10;;;;;;;;;;5010518;28;20057;-71
2023/08/13 03:51:04;;;;;;;20.05;5.15;;;;;;;;;;5030782;28;20048;-70
2023/08/13 03:53:30;;;;;;;21.30;4.88;;;;;;;;;;5030650;28;20052;-70
2023/08/13 03:55:56;;;;;;;16.17;4.72;;;;;;;;;;4994846;28;20058;-71
2023/08/13 03:58:22;;;;;;;18.58;4.97;;;;;;;;;;5013887;28;20116;-70
2023/08/13 04:00:48;;;;;;;27.10;5.45;;;;;;;;;;5025954;28;20046;-71
2023/08/13 04:03:14;;;;;;;21.15;5.78;;;;;;;;;;5001375;28;20057;-70
2023/08/13 04:05:40;;;;;;;18.92;4.85;;;;;;;;;;4997821;28;20413;-71
2023/08/13 04:08:06;;;;;;;21.35;5.53;;;;;;;;;;5027554;28;20489;-70
2023/08/13 04:10:32;;;;;;;14.73;4.43;;;;;;;;;;5026975;28;20102;-70
2023/08/13 04:13:02;;;;;;;22.27;5.28;;;;;;;;;;5018839;28;20045;-70
2023/08/13 04:15:28;;;;;;;14.95;4.65;;;;;;;;;;5015092;28;20077;-70
2023/08/13 04:17:55;;;;;;;18.48;4.55;;;;;;;;;;5017724;28;20392;-70
2023/08/13 04:20:21;;;;;;;17.73;5.13;;;;;;;;;;5012702;28;20049;-70
2023/08/13 04:22:47;;;;;;;19.52;5.32;;;;;;;;;;5011127;28;20060;-70
2023/08/13 04:25:13;;;;;;;17.88;4.65;;;;;;;;;;5000523;28;20061;-70
2023/08/13 04:27:39;;;;;;;19.20;4.80;;;;;;;;;;5016243;28;20045;-70
2023/08/13 04:30:06;;;;;;;19.55;4.90;;;;;;;;;;5006690;28;20072;-70
2023/08/13 04:32:32;;;;;;;16.05;4.25;;;;;;;;;;5019488;28;20391;-71
2023/08/13 04:34:58;;;;;;;17.55;5.10;;;;;;;;;;5016336;28;20029;-70
2023/08/13 04:37:24;;;;;;;17.85;4.80;;;;;;;;;;5024880;28;20481;-70
2023/08/13 04:39:50;;;;;;;15.55;4.88;;;;;;;;;;5016689;28;20045;-71
2023/08/13 04:42:16;;;;;;;21.30;5.28;;;;;;;;;;5005427;28;20045;-70
2023/08/13 04:44:42;;;;;;;19.92;5.10;;;;;;;;;;5006007;28;20105;-70
2023/08/13 04:47:08;;;;;;;18.23;5.25;;;;;;;;;;5028894;28;20464;-70
2023/08/13 04:49:34;;;;;;;17.80;4.68;;;;;;;;;;5008638;28;20512;-70
2023/08/13 04:52:00;;;;;;;16.95;4.90;;;;;;;;;;5109842;28;20043;-70
2023/08/13 04:54:26;;;;;;;19.13;4.72;;;;;;;;;;5094804;28;20070;-70
2023/08/13 04:56:52;;;;;;;25.17;4.93;;;;;;;;;;5062789;28;20489;-70
2023/08/13 04:59:18;;;;;;;14.88;3.95;;;;;;;;;;5034544;27;20042;-70
2023/08/13 05:01:44;;;;;;;15.85;4.70;;;;;;;;;;5132811;27;20109;-70
2023/08/13 05:04:12;;;;;;;18.48;5.28;;;;;;;;;;5133458;27;20043;-70
2023/08/13 05:06:38;;;;;;;17.25;4.97;;;;;;;;;;5094341;27;20571;-70
2023/08/13 05:09:04;;;;;;;18.55;5.35;;;;;;;;;;5028619;28;20369;-70
2023/08/13 05:11:30;;;;;;;20.33;4.57;;;;;;;;;;5028448;28;20088;-70
2023/08/13 05:13:56;;;;;;;16.95;4.90;;;;;;;;;;5022282;28;20069;-69
2023/08/13 05:16:22;;;;;;;18.77;5.20;;;;;;;;;;5009687;28;20048;-70
2023/08/13 05:18:48;;;;;;;12.23;4.50;;;;;;;;;;5016351;28;20133;-70
2023/08/13 05:21:15;;;;;;;20.95;4.82;;;;;;;;;;5023621;28;20077;-70
2023/08/13 05:23:41;;;;;;;21.55;5.18;;;;;;;;;;5026552;28;20077;-70
2023/08/13 05:26:07;;;;;;;18.88;5.05;;;;;;;;;;5006728;28;20480;-70
2023/08/13 05:28:33;;;;;;;28.73;5.07;;;;;;;;;;5016081;28;20063;-71
2023/08/13 05:31:02;;;;;;;17.48;4.45;;;;;;;;;;4994911;28;20157;-70
2023/08/13 05:33:28;;;;;;;17.38;4.72;;;;;;;;;;5017249;28;20046;-70
2023/08/13 05:35:55;;;;;;;18.42;4.75;;;;;;;;;;5015228;28;20053;-70
2023/08/13 05:38:21;;;;;;;20.95;5.75;;;;;;;;;;5022374;28;20162;-70
2023/08/13 05:40:47;;;;;;;15.10;4.72;;;;;;;;;;5020884;28;20045;-70
2023/08/13 05:43:13;;;;;;;17.65;4.90;;;;;;;;;;5007418;28;20049;-70
2023/08/13 05:45:41;;;;;;;18.55;4.68;;;;;;;;;;5020879;28;20038;-71
2023/08/13 05:48:07;;;;;;;17.38;4.93;;;;;;;;;;5019858;28;20149;-70
2023/08/13 05:50:33;;;;;;;17.08;4.32;;;;;;;;;;4990825;28;20103;-70
2023/08/13 05:52:59;;;;;;;17.63;4.82;;;;;;;;;;5009737;28;20084;-70
2023/08/13 05:55:25;;;;;;;17.45;4.88;;;;;;;;;;5001458;28;20177;-70
2023/08/13 05:57:51;;;;;;;23.33;4.97;;;;;;;;;;5025160;28;20485;-70
2023/08/13 06:00:18;;;;;;;15.90;4.43;;;;;;;;;;4991806;28;20121;-70
2023/08/13 06:02:44;;;;;;;13.52;4.10;;;;;;;;;;5023417;28;20041;-70
2023/08/13 06:05:11;;;;;;;16.70;4.25;;;;;;;;;;5004484;28;20054;-70
2023/08/13 06:07:37;;;;;;;15.63;4.53;;;;;;;;;;5018277;28;20147;-69
2023/08/13 06:10:04;;;;;;;13.23;4.20;;;;;;;;;;5010828;28;20049;-70
2023/08/13 06:12:30;;;;;;;17.65;4.25;;;;;;;;;;5010709;28;20060;-69
2023/08/13 06:14:56;;;;;;;10.38;3.75;;;;;;;;;;5000981;28;20061;-70
2023/08/13 06:17:22;;;;;;;12.30;3.63;;;;;;;;;;5005087;28;20045;-69
2023/08/13 06:19:48;;;;;;;13.57;3.63;;;;;;;;;;5003239;28;20050;-70
2023/08/13 06:22:14;;;;;;;14.95;4.10;;;;;;;;;;5006224;28;20053;-69
2023/08/13 06:24:41;;;;;;;9.10;3.78;;;;;;;;;;5007964;28;20073;-69
2023/08/13 06:27:07;;;;;;;11.73;3.70;;;;;;;;;;5018268;27;20166;-69
2023/08/13 06:29:33;;;;;;;16.67;3.72;;;;;;;;;;5002307;28;20050;-69
2023/08/13 06:31:59;;;;;;;13.88;4.35;;;;;;;;;;5021381;28;20046;-69
2023/08/13 06:34:25;;;;;;;10.18;3.72;;;;;;;;;;5013002;28;20101;-70
2023/08/13 06:36:51;;;;;;;12.88;3.95;;;;;;;;;;5013321;28;20037;-70
2023/08/13 06:39:18;;;;;;;13.85;4.18;;;;;;;;;;5012900;28;20066;-70
2023/08/13 06:41:44;;;;;;;12.95;4.10;;;;;;;;;;5031058;28;20052;-70
2023/08/13 06:44:17;;;;;;;11.63;3.60;;;;;;;;;;5011990;28;20567;-69
2023/08/13 06:46:43;;;;;;;13.45;4.00;;;;;;;;;;5030444;28;20405;-70
2023/08/13 06:49:09;;;;;;;11.13;3.85;;;;;;;;;;5025625;28;20038;-70
2023/08/13 06:51:35;;;;;;;11.68;3.78;;;;;;;;;;4993212;28;20064;-69
2023/08/13 06:54:02;;;;;;;11.25;3.83;;;;;;;;;;5011601;28;20046;-69
2023/08/13 06:56:28;;;;;;;13.82;3.90;;;;;;;;;;4994225;28;20504;-69
2023/08/13 06:58:54;;;;;;;8.30;4.00;;;;;;;;;;5003116;28;20049;-70
2023/08/13 07:01:20;;;;;;;12.27;3.50;;;;;;;;;;5016588;28;20045;-70
2023/08/13 07:03:46;;;;;;;14.32;3.97;;;;;;;;;;5034298;27;20045;-70
2023/08/13 07:06:12;;;;;;;14.55;4.07;;;;;;;;;;5017534;28;20053;-70
2023/08/13 07:08:38;;;;;;;13.13;3.50;;;;;;;;;;5022709;28;20607;-69
2023/08/13 07:11:04;;;;;;;15.05;4.15;;;;;;;;;;5018862;28;20122;-69
2023/08/13 07:13:30;;;;;;;9.10;3.33;;;;;;;;;;4999027;28;20109;-69
2023/08/13 07:15:56;;;;;;;11.00;3.75;;;;;;;;;;5004095;28;20567;-69
2023/08/13 07:18:22;;;;;;;12.35;3.42;;;;;;;;;;5017962;28;20481;-69
2023/08/13 07:20:48;;;;;;;17.60;3.80;;;;;;;;;;5066977;28;20039;-69
2023/08/13 07:23:14;;;;;;;10.55;3.50;;;;;;;;;;5080433;28;20045;-68
2023/08/13 07:25:40;;;;;;;15.20;3.90;;;;;;;;;;5012755;28;20068;-68
2023/08/13 07:28:06;;;;;;;11.35;3.65;;;;;;;;;;5013600;28;20060;-68
2023/08/13 07:30:32;;;;;;;12.80;4.15;;;;;;;;;;5025682;28;20041;-68
2023/08/13 07:32:58;;;;;;;12.15;3.58;;;;;;;;;;5021654;27;20468;-67
2023/08/13 07:35:25;;;;;;;13.43;3.65;;;;;;;;;;5018843;28;20049;-68
2023/08/13 07:37:51;;;;;;;11.07;3.40;;;;;;;;;;5021301;28;20042;-68
2023/08/13 07:40:18;;;;;;;14.25;4.88;;;;;;;;;;5017445;27;20031;-68
2023/08/13 07:42:44;;;;;;;15.93;3.55;;;;;;;;;;5015470;27;20125;-69
2023/08/13 07:45:11;;;;;;;10.60;3.47;;;;;;;;;;5009955;28;20485;-69
2023/08/13 07:47:37;;;;;;;10.82;3.20;;;;;;;;;;5013335;28;20041;-69
2023/08/13 07:50:07;;;;;;;16.80;4.18;;;;;;;;;;5017363;28;20044;-68
2023/08/13 07:52:34;;;;;;;12.48;3.30;;;;;;;;;;5024826;28;20041;-69
2023/08/13 07:55:00;;;;;;;16.75;4.13;;;;;;;;;;5023834;27;20052;-70
2023/08/13 07:57:26;;;;;;;10.23;3.63;;;;;;;;;;5015947;28;20057;-70
2023/08/13 07:59:55;;;;;;;12.82;3.80;;;;;;;;;;5017838;28;20041;-70
2023/08/13 08:02:23;;;;;;;12.98;3.30;;;;;;;;;;4999968;28;20080;-69
2023/08/13 08:04:49;;;;;;;11.32;3.53;;;;;;;;;;5004270;28;20049;-69
2023/08/13 08:07:15;;;;;;;12.05;4.25;;;;;;;;;;5021797;28;20130;-69
2023/08/13 08:09:41;;;;;;;11.07;4.55;;;;;;;;;;5019330;28;20481;-70
2023/08/13 08:12:07;;;;;;;15.43;3.53;;;;;;;;;;4997509;28;20042;-70
2023/08/13 08:14:33;;;;;;;10.68;3.42;;;;;;;;;;5014884;28;20037;-70
2023/08/13 08:17:00;;;;;;;10.63;4.15;;;;;;;;;;5001707;28;20129;-69
2023/08/13 08:19:26;;;;;;;10.18;4.05;;;;;;;;;;5016975;28;20077;-69
2023/08/13 08:21:56;;;;;;;12.98;4.13;;;;;;;;;;5016151;28;20102;-70
2023/08/13 08:24:22;;;;;;;11.68;4.00;;;;;;;;;;5029950;27;20047;-70
2023/08/13 08:26:48;;;;;;;8.18;3.30;;;;;;;;;;5009671;28;20037;-70
2023/08/13 08:29:14;;;;;;;11.48;3.70;;;;;;;;;;5018091;28;20489;-69
2023/08/13 08:31:40;;;;;;;8.68;3.50;;;;;;;;;;5071581;28;20093;-70
2023/08/13 08:34:06;;;;;;;11.45;3.72;;;;;;;;;;5016914;28;20509;-70
2023/08/13 08:36:32;;;;;;;10.80;4.05;;;;;;;;;;5014634;28;20081;-70
2023/08/13 08:38:58;;;;;;;12.25;3.53;;;;;;;;;;4997072;28;20049;-70
2023/08/13 08:41:28;;;;;;;13.02;3.70;;;;;;;;;;5028884;28;20050;-70
2023/08/13 08:43:55;;;;;;;10.15;3.53;;;;;;;;;;5011339;28;20041;-70
2023/08/13 08:46:21;;;;;;;9.50;3.38;;;;;;;;;;5040691;27;20126;-70
2023/08/13 08:48:49;;;;;;;10.27;3.83;;;;;;;;;;5022283;28;20041;-70
2023/08/13 08:51:15;;;;;;;9.15;3.42;;;;;;;;;;5015905;28;20108;-70
2023/08/13 08:53:41;;;;;;;13.90;4.00;;;;;;;;;;5021199;28;20572;-69
2023/08/13 08:56:07;;;;;;;13.25;3.60;;;;;;;;;;5099964;27;20042;-70
2023/08/13 08:58:33;;;;;;;12.80;3.80;;;;;;;;;;5078090;27;20035;-70
2023/08/13 09:01:00;;;;;;;12.20;3.90;;;;;;;;;;5068164;27;20162;-70
2023/08/13 09:03:29;;;;;;;12.30;3.97;;;;;;;;;;5028606;27;20064;-70
2023/08/13 09:05:58;;;;;;;12.25;3.97;;;;;;;;;;5010932;28;20112;-70
2023/08/13 09:08:25;;;;;;;11.35;3.75;;;;;;;;;;4994501;28;20058;-70
2023/08/13 09:10:51;;;;;;;8.57;3.45;;;;;;;;;;5003240;28;20490;-70
2023/08/13 09:13:17;;;;;;;14.60;3.75;;;;;;;;;;5006927;28;20828;-70
2023/08/13 09:15:50;;;;;;;10.77;4.05;;;;;;;;;;5002970;28;20054;-70
2023/08/13 09:18:16;;;;;;;10.65;3.50;;;;;;;;;;4989453;28;20179;-70
2023/08/13 09:20:44;;;;;;;7.88;3.13;;;;;;;;;;4991788;28;20042;-70
2023/08/13 09:23:10;;;;;;;13.68;4.30;;;;;;;;;;4989876;28;20074;-70
2023/08/13 09:25:36;;;;;;;12.77;3.63;;;;;;;;;;4999345;28;20082;-70
2023/08/13 09:28:02;;;;;;;11.05;3.50;;;;;;;;;;5008260;28;20456;-70
2023/08/13 09:30:31;;;;;;;9.15;4.10;;;;;;;;;;5009484;28;20393;-70
2023/08/13 09:32:58;;;;;;;11.48;3.92;;;;;;;;;;4996802;28;20058;-70
2023/08/13 09:35:24;;;;;;;9.38;3.35;;;;;;;;;;4992813;28;20121;-70
2023/08/13 09:37:51;;;;;;;9.75;3.60;;;;;;;;;;5009365;28;20057;-70
2023/08/13 09:40:17;;;;;;;11.13;3.42;;;;;;;;;;5007495;28;20049;-70
2023/08/13 09:42:44;;;;;;;13.88;3.88;;;;;;;;;;5006799;28;20049;-70
2023/08/13 09:45:10;;;;;;;9.23;3.72;;;;;;;;;;5008289;28;20052;-70
2023/08/13 09:47:39;;;;;;;12.48;4.38;;;;;;;;;;5008599;28;20413;-71
2023/08/13 09:50:06;;;;;;;10.50;3.95;;;;;;;;;;5007788;28;20481;-70
2023/08/13 09:52:35;;;;;;;8.52;3.45;;;;;;;;;;4993484;28;20382;-70
2023/08/13 09:55:02;;;;;;;12.50;3.58;;;;;;;;;;4988959;28;20490;-70
2023/08/13 09:57:28;;;;;;;9.40;3.70;;;;;;;;;;4989737;28;20042;-70
2023/08/13 09:59:55;;;;;;;10.80;3.40;;;;;;;;;;5007570;28;20077;-70
2023/08/13 10:02:21;;;;;;;11.05;3.10;;;;;;;;;;5010852;28;20139;-70
2023/08/13 10:04:47;;;;;;;9.70;3.13;;;;;;;;;;5014823;28;20072;-70
2023/08/13 10:07:13;;;;;;;11.52;3.42;;;;;;;;;;5010916;28;20050;-70
2023/08/13 10:09:40;;;;;;;11.18;3.17;;;;;;;;;;5011564;28;20053;-71
2023/08/13 10:12:07;;;;;;;8.32;2.75;;;;;;;;;;4998509;28;20045;-70
2023/08/13 10:14:34;;;;;;;9.68;2.83;;;;;;;;;;5021355;28;20504;-70
2023/08/13 10:17:06;;;;;;;9.77;3.20;;;;;;;;;;4994522;28;20046;-70
2023/08/13 10:19:39;;;;;;;10.98;3.72;;;;;;;;;;5022240;28;20041;-70
2023/08/13 10:22:05;;;;;;;;;;;;;;;;;;5013792;28;20491;-71
2023/08/13 10:24:31;;;;;;;7.00;2.50;;;;;;;;;;5030135;28;19925;-70
2023/08/13 10:27:00;;;;;;;9.88;3.15;;;;;;;;;;5013955;28;20499;-71
2023/08/13 10:29:35;;;;;;;6.18;2.67;;;;;;;;;;5031414;28;20084;-70
2023/08/13 10:32:01;;;;;;;10.73;3.17;;;;;;;;;;5017072;28;20049;-70
2023/08/13 10:34:50;;;;;;;8.07;2.92;;;;;;;;;;5012146;28;20042;-70
2023/08/13 10:37:18;;;;;;;7.40;2.30;;;;;;;;;;4994052;28;20058;-70
2023/08/13 10:39:45;;;;;;;5.40;2.45;;;;;;;;;;5022740;28;20041;-70
2023/08/13 10:42:26;;;;;;;9.63;2.95;;;;;;;;;;5012415;28;20053;-70
2023/08/13 10:45:02;;;;;;;7.20;2.67;;;;;;;;;;5031007;28;20045;-71
2023/08/13 10:47:45;;;;;;;6.55;2.55;;;;;;;;;;5009695;28;20054;-70
2023/08/13 10:50:30;;;;;;;7.00;2.63;;;;;;;;;;4993571;28;20054;-70
2023/08/13 10:52:56;;;;;;;6.15;2.47;;;;;;;;;;4994053;28;20093;-70
2023/08/13 10:55:23;;;;;;;5.97;2.30;;;;;;;;;;4994114;28;20081;-69
2023/08/13 10:57:52;;;;;;;5.45;2.47;;;;;;;;;;5004377;28;20061;-69
2023/08/13 11:00:19;;;;;;;5.63;2.42;;;;;;;;;;5031864;28;20048;-70
2023/08/13 11:02:45;;;;;;;6.55;2.28;;;;;;;;;;5031113;28;20184;-70
2023/08/13 11:05:12;;;;;;;5.53;2.17;;;;;;;;;;5010654;28;20412;-69
2023/08/13 11:07:38;;;;;;;5.07;2.38;;;;;;;;;;5031364;28;20101;-70
2023/08/13 11:10:05;;;;;;;8.52;2.60;;;;;;;;;;5030814;28;20095;-69
2023/08/13 11:12:31;;;;;;;10.82;2.72;;;;;;;;;;5029554;28;20496;-69
2023/08/13 11:15:00;;;;;;;7.97;2.65;;;;;;;;;;5029002;28;20048;-69
2023/08/13 11:17:26;;;;;;;8.07;2.60;;;;;;;;;;5012802;28;20113;-70
2023/08/13 11:19:56;;;;;;;8.30;2.70;;;;;;;;;;5009781;28;20042;-70
2023/08/13 11:22:24;;;;;;;9.57;3.15;;;;;;;;;;5011915;28;20052;-70
2023/08/13 11:24:50;;;;;;;11.43;2.70;;;;;;;;;;5010067;28;20507;-70
2023/08/13 11:27:16;;;;;;;8.23;2.40;;;;;;;;;;5031010;28;20049;-70
2023/08/13 11:29:42;;;;;;;10.90;2.83;;;;;;;;;;5029373;28;20038;-70
2023/08/13 11:32:08;;;;;;;8.95;3.08;;;;;;;;;;5011775;28;20057;-70
2023/08/13 11:34:34;;;;;;;8.23;2.60;;;;;;;;;;5010863;28;20045;-70
2023/08/13 11:37:00;;;;;;;7.13;2.60;;;;;;;;;;5012104;28;20049;-69
2023/08/13 11:39:27;;;;;;;7.32;2.75;;;;;;;;;;5030374;28;20053;-70
2023/08/13 11:41:53;;;;;;;6.07;2.70;;;;;;;;;;5011970;28;20114;-70
2023/08/13 11:44:19;;;;;;;6.82;2.63;;;;;;;;;;5010829;28;20046;-70
2023/08/13 11:46:53;;;;;;;8.23;2.60;;;;;;;;;;4992200;28;20629;-70
2023/08/13 11:49:19;;;;;;;13.00;3.58;;;;;;;;;;4993622;28;20046;-69
2023/08/13 11:51:45;;;;;;;7.10;2.50;;;;;;;;;;4997204;28;20041;-70
2023/08/13 11:54:11;;;;;;;7.65;2.70;;;;;;;;;;5010671;28;20056;-70
2023/08/13 11:56:38;;;;;;;5.90;2.40;;;;;;;;;;5024675;28;20077;-70
2023/08/13 11:59:06;;;;;;;6.40;2.45;;;;;;;;;;5011049;28;20099;-70
2023/08/13 12:01:36;;;;;;;5.22;2.20;;;;;;;;;;5022551;28;20046;-70
2023/08/13 12:04:06;;;;;;;8.55;3.10;;;;;;;;;;5030379;28;20483;-70
2023/08/13 12:06:35;;;;;;;6.50;2.22;;;;;;;;;;5012272;28;20109;-70
2023/08/13 12:09:03;;;;;;;7.95;3.38;;;;;;;;;;4998782;28;20046;-70
2023/08/13 12:11:29;;;;;;;7.30;2.53;;;;;;;;;;5030035;28;20128;-69
2023/08/13 12:13:55;;;;;;;6.13;2.50;;;;;;;;;;5030054;28;20175;-70
2023/08/13 12:16:21;;;;;;;4.57;2.38;;;;;;;;;;5028823;28;20091;-70
2023/08/13 12:18:47;;;;;;;7.90;3.05;;;;;;;;;;5023657;28;20054;-70
2023/08/13 12:21:14;;;;;;;10.18;2.55;;;;;;;;;;5011397;28;20059;-70
2023/08/13 12:23:49;;;;;;;8.40;3.20;;;;;;;;;;5030150;28;20046;-70
2023/08/13 12:26:15;;;;;;;8.35;2.90;;;;;;;;;;5028925;28;20400;-70
2023/08/13 12:28:41;;;;;;;6.05;2.67;;;;;;;;;;5000906;28;20050;-70
2023/08/13 12:31:07;;;;;;;8.88;3.30;;;;;;;;;;5010002;28;20050;-70
2023/08/13 12:33:33;;;;;;;7.20;2.80;;;;;;;;;;5029974;28;20045;-70
2023/08/13 12:35:59;;;;;;;9.20;3.00;;;;;;;;;;5021372;28;20381;-70
2023/08/13 12:38:25;;;;;;;7.35;3.53;;;;;;;;;;5010375;28;20126;-70
2023/08/13 12:40:51;;;;;;;4.93;3.00;;;;;;;;;;5015478;28;20396;-70
2023/08/13 12:43:17;;;;;;;8.10;3.33;;;;;;;;;;5029016;28;20094;-70
2023/08/13 12:45:43;;;;;;;6.75;3.15;;;;;;;;;;5012237;28;20041;-70
2023/08/13 12:48:09;;;;;;;7.85;3.22;;;;;;;;;;5010375;28;20131;-70
2023/08/13 12:50:35;;;;;;;7.18;3.47;;;;;;;;;;5016095;28;20045;-70
2023/08/13 12:53:03;;;;;;;9.45;3.25;;;;;;;;;;5011257;28;20484;-70
2023/08/13 12:55:29;;;;;;;6.07;3.40;;;;;;;;;;4992548;28;20053;-70
2023/08/13 12:57:55;;;;;;;6.25;3.10;;;;;;;;;;5008600;28;20045;-70
2023/08/13 13:00:21;;;;;;;5.97;2.80;;;;;;;;;;5009744;28;20055;-70
2023/08/13 13:02:47;;;;;;;5.95;2.95;;;;;;;;;;5009654;28;20046;-70
2023/08/13 13:05:13;;;;;;;4.32;2.80;;;;;;;;;;5009063;28;20103;-70
2023/08/13 13:07:39;;;;;;;8.32;3.10;;;;;;;;;;5008702;28;20539;-70
2023/08/13 13:10:05;;;;;;;8.18;3.10;;;;;;;;;;5019598;28;20480;-70
2023/08/13 13:12:31;;;;;;;8.85;3.25;;;;;;;;;;5010606;28;20056;-69
2023/08/13 13:14:58;;;;;;;8.63;3.25;;;;;;;;;;5011379;28;20033;-70
2023/08/13 13:17:26;;;;;;;7.80;3.50;;;;;;;;;;5028787;28;20045;-70
2023/08/13 13:19:54;;;;;;;9.38;3.10;;;;;;;;;;5028149;28;20106;-70
2023/08/13 13:22:20;;;;;;;7.28;3.33;;;;;;;;;;5028896;28;20386;-70
2023/08/13 13:24:46;;;;;;;5.35;2.92;;;;;;;;;;5025826;28;20049;-70
2023/08/13 13:27:12;;;;;;;6.55;2.95;;;;;;;;;;5029402;28;20048;-69
2023/08/13 13:29:38;;;;;;;6.85;3.38;;;;;;;;;;5028682;28;20038;-73
2023/08/13 13:32:04;;;;;;;8.52;3.10;;;;;;;;;;5027220;28;20049;-70
2023/08/13 13:34:30;;;;;;;8.10;3.45;;;;;;;;;;5011276;28;20126;-70
2023/08/13 13:36:56;;;;;;;6.10;3.00;;;;;;;;;;5011007;28;20053;-70
2023/08/13 13:39:22;;;;;;;6.88;3.33;;;;;;;;;;5025913;28;20383;-70
2023/08/13 13:41:48;;;;;;;6.43;3.30;;;;;;;;;;5028725;28;20049;-70
2023/08/13 13:44:14;;;;;;;5.22;2.83;;;;;;;;;;5029316;28;20087;-70
2023/08/13 13:46:41;;;;;;;5.63;2.83;;;;;;;;;;5010484;28;20053;-70
2023/08/13 13:49:07;;;;;;;7.32;3.00;;;;;;;;;;5022974;28;20042;-70
2023/08/13 13:51:33;;;;;;;6.97;2.90;;;;;;;;;;4991660;28;20095;-70
2023/08/13 13:53:59;;;;;;;11.18;3.63;;;;;;;;;;5008081;28;20038;-70
2023/08/13 13:56:25;;;;;;;9.70;3.00;;;;;;;;;;5023445;28;20049;-70
2023/08/13 13:58:51;;;;;;;6.30;3.17;;;;;;;;;;5028574;28;20405;-70
2023/08/13 14:01:17;;;;;;;8.70;3.28;;;;;;;;;;5009879;28;20469;-70
2023/08/13 14:03:43;;;;;;;7.60;2.92;;;;;;;;;;5028114;28;20571;-69
2023/08/13 14:06:09;;;;;;;8.15;2.88;;;;;;;;;;5010998;28;20080;-70
2023/08/13 14:08:35;;;;;;;10.93;3.13;;;;;;;;;;5008905;28;20061;-70
2023/08/13 14:11:01;;;;;;;9.15;3.20;;;;;;;;;;5019239;28;20050;-70
2023/08/13 14:13:27;;;;;;;9.82;3.05;;;;;;;;;;5008945;28;20087;-70
2023/08/13 14:15:58;;;;;;;7.55;2.80;;;;;;;;;;5018012;28;20049;-70
2023/08/13 14:18:24;;;;;;;10.05;2.58;;;;;;;;;;5028763;28;20116;-70
2023/08/13 14:20:50;;;;;;;5.60;2.47;;;;;;;;;;4993781;28;20478;-70
2023/08/13 14:23:16;;;;;;;5.28;2.30;;;;;;;;;;4991273;28;20056;-70
2023/08/13 14:25:42;;;;;;;8.02;2.72;;;;;;;;;;5008582;28;20045;-70
2023/08/13 14:28:08;;;;;;;7.03;2.60;;;;;;;;;;5001916;28;20049;-70
2023/08/13 14:30:35;;;;;;;6.70;2.67;;;;;;;;;;5028012;28;20077;-70